createdAt,value
2024-02-29T00:01:02.066Z,97500.81
2024-02-29T00:03:29.168Z,97506.81
2024-02-29T00:05:57.928Z,97506.56
2024-02-29T00:08:25.233Z,97508.13
2024-02-29T00:10:54.108Z,97504.69
2024-02-29T00:13:21.227Z,97507.22
2024-02-29T00:15:48.557Z,97508.81
2024-02-29T00:18:18.197Z,97508.66
2024-02-29T00:20:45.330Z,97506.81
2024-02-29T00:23:12.329Z,97511.94
2024-02-29T00:25:39.555Z,97506.94
2024-02-29T00:28:09.012Z,97507.88
2024-02-29T00:30:36.199Z,97502.75
2024-02-29T00:33:03.818Z,97504.59
2024-02-29T00:35:30.817Z,97496.13
2024-02-29T00:37:58.188Z,97498.91
2024-02-29T00:40:25.667Z,97497.97
2024-02-29T00:42:52.790Z,97493.72
2024-02-29T00:45:21.529Z,97497.41
2024-02-29T00:47:49.415Z,97491.38
2024-02-29T00:50:16.806Z,97493.19
2024-02-29T00:52:44.330Z,97487.91
2024-02-29T00:55:11.594Z,97488.94
2024-02-29T00:57:39.044Z,97478.94
2024-02-29T01:00:11.686Z,97493.03
2024-02-29T01:02:40.845Z,97490.34
2024-02-29T01:05:08.695Z,97480.28
2024-02-29T01:07:35.930Z,97486.41
2024-02-29T01:10:04.343Z,97477.59
2024-02-29T01:12:31.552Z,97478.59
2024-02-29T01:14:59.074Z,97474.50
2024-02-29T01:17:26.625Z,97479.03
2024-02-29T01:19:55.376Z,97474.69
2024-02-29T01:22:22.800Z,97472.75
2024-02-29T01:24:49.917Z,97465.59
2024-02-29T01:27:17.712Z,97460.91
2024-02-29T01:29:45.491Z,97459.88
2024-02-29T01:32:18.808Z,97456.44
2024-02-29T01:34:54.462Z,97459.38
2024-02-29T01:37:21.566Z,97463.84
2024-02-29T01:39:48.627Z,97463.06
2024-02-29T01:42:15.895Z,97469.31
2024-02-29T01:44:53.694Z,97462.50
2024-02-29T01:47:20.942Z,97463.41
2024-02-29T01:49:49.956Z,97455.69
2024-02-29T01:52:23.213Z,97457.63
2024-02-29T01:54:50.627Z,97464.69
2024-02-29T01:57:17.850Z,97447.41
2024-02-29T01:59:48.233Z,97454.13
2024-02-29T02:02:18.355Z,97455.94
2024-02-29T02:04:45.563Z,97451.38
2024-02-29T02:07:12.885Z,97453.44
2024-02-29T02:09:41.821Z,97446.06
2024-02-29T02:12:09.936Z,97450.50
2024-02-29T02:14:37.128Z,97449.00
2024-02-29T02:17:04.688Z,97446.72
2024-02-29T02:19:31.815Z,97450.50
2024-02-29T02:22:01.095Z,97447.47
2024-02-29T02:24:28.110Z,97440.75
2024-02-29T02:26:55.437Z,97447.78
2024-02-29T02:29:22.684Z,97446.13
2024-02-29T02:31:49.788Z,97447.13
2024-02-29T02:34:16.904Z,97444.75
2024-02-29T02:36:44.166Z,97454.25
2024-02-29T02:42:41.968Z,97460.16
2024-02-29T02:45:10.218Z,97454.03
2024-02-29T02:47:37.364Z,97455.88
2024-02-29T02:50:05.500Z,97448.25
2024-02-29T02:52:33.020Z,97452.69
2024-02-29T02:55:00.416Z,97451.00
2024-02-29T02:57:28.121Z,97449.72
2024-02-29T02:59:56.871Z,97455.91
2024-02-29T03:02:23.953Z,97448.03
2024-02-29T03:04:51.436Z,97455.91
2024-02-29T03:07:19.195Z,97452.72
2024-02-29T03:09:46.369Z,97464.16
2024-02-29T03:12:13.674Z,97451.13
2024-02-29T03:14:41.434Z,97462.81
2024-02-29T03:17:10.473Z,97468.28
2024-02-29T03:19:38.400Z,97458.88
2024-02-29T03:22:06.138Z,97464.44
2024-02-29T03:24:33.264Z,97463.81
2024-02-29T03:27:00.779Z,97464.91
2024-02-29T03:29:28.038Z,97464.19
2024-02-29T03:31:55.496Z,97466.19
2024-02-29T03:34:24.250Z,97464.56
2024-02-29T03:36:51.886Z,97464.94
2024-02-29T03:39:19.422Z,97469.44
2024-02-29T03:41:47.018Z,97473.09
2024-02-29T03:44:14.899Z,97479.19
2024-02-29T03:46:42.016Z,97470.84
2024-02-29T03:49:09.111Z,97467.50
2024-02-29T03:51:37.698Z,97464.06
2024-02-29T03:54:05.274Z,97464.91
2024-02-29T03:56:32.321Z,97444.69
2024-02-29T03:58:59.435Z,97451.97
2024-02-29T04:01:26.593Z,97441.44
2024-02-29T04:03:53.958Z,97431.63
2024-02-29T04:06:21.007Z,97432.84
2024-02-29T04:08:49.825Z,97423.41
2024-02-29T04:11:17.107Z,97432.53
2024-02-29T04:13:44.088Z,97420.88
2024-02-29T04:16:11.525Z,97419.03
2024-02-29T04:18:39.052Z,97426.53
2024-02-29T04:21:06.402Z,97423.19
2024-02-29T04:23:34.071Z,97425.13
2024-02-29T04:26:03.002Z,97421.59
2024-02-29T04:28:30.154Z,97416.38
2024-02-29T04:30:57.262Z,97420.53
2024-02-29T04:33:25.397Z,97410.72
2024-02-29T04:35:53.077Z,97425.41
2024-02-29T04:38:20.226Z,97414.22
2024-02-29T04:40:47.549Z,97417.78
2024-02-29T04:43:16.309Z,97416.44
2024-02-29T04:45:43.631Z,97406.06
2024-02-29T04:48:11.185Z,97397.25
2024-02-29T04:50:38.320Z,97399.53
2024-02-29T04:53:05.857Z,97406.28
2024-02-29T04:55:33.659Z,97406.22
2024-02-29T04:58:00.762Z,97398.50
2024-02-29T05:00:29.772Z,97401.97
2024-02-29T05:02:56.718Z,97405.31
2024-02-29T05:05:23.902Z,97406.13
2024-02-29T05:07:51.159Z,97394.09
2024-02-29T05:10:18.728Z,97400.13
2024-02-29T05:12:45.926Z,97396.78
2024-02-29T05:15:13.505Z,97399.13
2024-02-29T05:17:42.343Z,97407.91
2024-02-29T05:20:10.971Z,97401.09
2024-02-29T05:22:39.787Z,97398.28
2024-02-29T05:25:08.458Z,97402.47
2024-02-29T05:27:37.040Z,97399.81
2024-02-29T05:30:04.961Z,97408.41
2024-02-29T05:32:32.420Z,97403.78
2024-02-29T05:35:02.011Z,97407.53
2024-02-29T05:37:29.646Z,97412.31
2024-02-29T05:39:57.265Z,97405.44
2024-02-29T05:42:24.869Z,97408.81
2024-02-29T05:44:51.978Z,97405.22
2024-02-29T05:47:19.285Z,97408.53
2024-02-29T05:49:46.850Z,97407.53
2024-02-29T05:52:16.900Z,97405.69
2024-02-29T05:54:44.188Z,97414.16
2024-02-29T05:57:11.551Z,97408.13
2024-02-29T05:59:39.142Z,97402.72
2024-02-29T06:02:06.529Z,97401.72
2024-02-29T06:04:33.760Z,97401.81
2024-02-29T06:07:01.160Z,97410.03
2024-02-29T06:09:30.807Z,97403.84
2024-02-29T06:11:58.727Z,97411.47
2024-02-29T06:14:26.459Z,97407.03
2024-02-29T06:16:53.610Z,97410.22
2024-02-29T06:19:21.208Z,97421.84
2024-02-29T06:21:49.368Z,97413.81
2024-02-29T06:24:16.716Z,97408.44
2024-02-29T06:26:45.805Z,97412.81
2024-02-29T06:29:13.450Z,97406.59
2024-02-29T06:31:42.853Z,97408.94
2024-02-29T06:34:10.615Z,97414.72
2024-02-29T06:36:38.476Z,97414.28
2024-02-29T06:39:06.286Z,97417.19
2024-02-29T06:41:35.818Z,97407.56
2024-02-29T06:44:05.167Z,97420.31
2024-02-29T06:46:32.889Z,97406.25
2024-02-29T06:49:01.050Z,97410.13
2024-02-29T06:51:28.918Z,97415.91
2024-02-29T06:53:56.090Z,97407.97
2024-02-29T06:56:24.217Z,97413.00
2024-02-29T06:58:51.592Z,97417.16
2024-02-29T07:01:21.215Z,97411.53
2024-02-29T07:03:48.834Z,97409.28
2024-02-29T07:06:16.721Z,97421.59
2024-02-29T07:08:46.484Z,97415.81
2024-02-29T07:11:14.119Z,97414.34
2024-02-29T07:13:41.284Z,97425.06
2024-02-29T07:16:09.269Z,97431.94
2024-02-29T07:18:38.197Z,97432.84
2024-02-29T07:21:05.770Z,97433.53
2024-02-29T07:23:33.204Z,97433.53
2024-02-29T07:26:03.559Z,97427.81
2024-02-29T07:28:31.498Z,97433.84
2024-02-29T07:30:59.028Z,97434.47
2024-02-29T07:33:26.433Z,97431.63
2024-02-29T07:35:56.192Z,97439.34
2024-02-29T07:38:23.530Z,97435.81
2024-02-29T07:40:51.404Z,97435.81
2024-02-29T07:43:18.794Z,97432.22
2024-02-29T07:45:47.542Z,97428.63
2024-02-29T07:48:15.844Z,97433.22
2024-02-29T07:50:43.087Z,97437.72
2024-02-29T07:53:12.423Z,97437.81
2024-02-29T07:55:39.958Z,97432.78
2024-02-29T07:58:07.721Z,97429.19
2024-02-29T08:00:35.565Z,97430.53
2024-02-29T08:03:03.008Z,97426.50
2024-02-29T08:05:30.643Z,97425.28
2024-02-29T08:07:58.366Z,97432.34
2024-02-29T08:10:27.570Z,97433.09
2024-02-29T08:12:55.209Z,97437.53
2024-02-29T08:15:22.494Z,97430.72
2024-02-29T08:17:50.080Z,97430.72
2024-02-29T08:20:18.874Z,97429.97
2024-02-29T08:22:46.404Z,97427.06
2024-02-29T08:25:13.759Z,97425.97
2024-02-29T08:27:45.223Z,97431.72
2024-02-29T08:30:12.801Z,97436.97
2024-02-29T08:32:40.223Z,97430.59
2024-02-29T08:35:08.019Z,97429.16
2024-02-29T08:37:35.399Z,97421.84
2024-02-29T08:40:02.976Z,97412.84
2024-02-29T08:42:30.601Z,97420.81
2024-02-29T08:44:59.916Z,97415.59
2024-02-29T08:47:28.710Z,97424.75
2024-02-29T08:49:56.529Z,97413.84
2024-02-29T08:52:25.731Z,97415.22
2024-02-29T08:54:53.423Z,97408.00
2024-02-29T08:57:23.279Z,97414.06
2024-02-29T08:59:50.520Z,97407.78
2024-02-29T09:02:19.639Z,97409.47
2024-02-29T09:04:46.898Z,97406.09
2024-02-29T09:07:14.334Z,97400.91
2024-02-29T09:09:41.768Z,97397.50
2024-02-29T09:12:09.887Z,97397.50
2024-02-29T09:14:38.161Z,97388.31
2024-02-29T09:17:05.296Z,97394.03
2024-02-29T09:19:35.414Z,97388.94
2024-02-29T09:22:03.538Z,97379.28
2024-02-29T09:24:30.744Z,97376.41
2024-02-29T09:26:58.124Z,97383.22
2024-02-29T09:29:27.296Z,97380.03
2024-02-29T09:31:55.256Z,97385.13
2024-02-29T09:34:23.449Z,97377.56
2024-02-29T09:36:52.137Z,97371.59
2024-02-29T09:39:19.457Z,97374.03
2024-02-29T09:42:08.257Z,97367.75
2024-02-29T09:44:36.062Z,97367.25
2024-02-29T09:47:03.707Z,97361.53
2024-02-29T09:49:31.000Z,97354.44
2024-02-29T09:52:01.732Z,97360.41
2024-02-29T09:54:33.878Z,97353.09
2024-02-29T09:57:02.488Z,97347.69
2024-02-29T09:59:32.085Z,97340.28
2024-02-29T10:02:00.743Z,97336.31
2024-02-29T10:04:28.272Z,97334.81
2024-02-29T10:06:55.645Z,97338.28
2024-02-29T10:09:24.178Z,97341.06
2024-02-29T10:11:54.607Z,97336.03
2024-02-29T10:14:22.892Z,97340.50
2024-02-29T10:16:51.758Z,97331.03
2024-02-29T10:19:20.141Z,97335.94
2024-02-29T10:21:48.081Z,97324.75
2024-02-29T10:24:15.993Z,97326.53
2024-02-29T10:26:45.161Z,97320.78
2024-02-29T10:29:12.572Z,97316.31
2024-02-29T10:31:40.131Z,97314.25
2024-02-29T10:34:10.870Z,97314.31
2024-02-29T10:36:38.535Z,97308.22
2024-02-29T10:39:05.974Z,97308.66
2024-02-29T10:41:34.273Z,97305.88
2024-02-29T10:44:04.439Z,97307.09
2024-02-29T10:46:32.569Z,97309.28
2024-02-29T10:49:04.451Z,97297.38
2024-02-29T10:51:44.352Z,97296.31
2024-02-29T10:54:18.568Z,97289.84
2024-02-29T10:56:47.240Z,97285.03
2024-02-29T10:59:17.787Z,97280.56
2024-02-29T11:01:46.366Z,97273.81
2024-02-29T11:04:13.950Z,97273.72
2024-02-29T11:06:44.121Z,97271.78
2024-02-29T11:09:13.314Z,97264.50
2024-02-29T11:11:40.878Z,97257.09
2024-02-29T11:14:09.622Z,97245.50
2024-02-29T11:16:41.720Z,97252.44
2024-02-29T11:19:10.157Z,97256.34
2024-02-29T11:21:37.746Z,97245.13
2024-02-29T11:24:06.845Z,97247.22
2024-02-29T11:26:35.848Z,97237.38
2024-02-29T11:29:11.923Z,97227.06
2024-02-29T11:31:45.305Z,97227.25
2024-02-29T11:34:13.389Z,97223.31
2024-02-29T11:36:42.224Z,97219.66
2024-02-29T11:39:09.638Z,97221.03
2024-02-29T11:41:38.203Z,97207.53
2024-02-29T11:44:05.919Z,97202.94
2024-02-29T11:46:33.446Z,97196.69
2024-02-29T11:49:02.863Z,97196.72
2024-02-29T11:51:30.472Z,97186.06
2024-02-29T11:53:58.145Z,97184.59
2024-02-29T11:56:26.454Z,97177.41
2024-02-29T11:58:53.726Z,97172.44
2024-02-29T12:01:21.857Z,97166.66
2024-02-29T12:03:50.681Z,97157.28
2024-02-29T12:06:20.336Z,97154.53
2024-02-29T12:08:48.354Z,97149.72
2024-02-29T12:11:16.752Z,97153.44
2024-02-29T12:13:44.568Z,97148.41
2024-02-29T12:16:14.593Z,97139.91
2024-02-29T12:18:42.019Z,97134.22
2024-02-29T12:21:09.850Z,97129.41
2024-02-29T12:23:41.086Z,97128.63
2024-02-29T12:26:11.006Z,97126.72
2024-02-29T12:28:38.945Z,97125.97
2024-02-29T12:31:08.382Z,97128.34
2024-02-29T12:33:37.839Z,97118.66
2024-02-29T12:36:06.900Z,97124.22
2024-02-29T12:38:35.401Z,97120.84
2024-02-29T12:41:05.960Z,97114.19
2024-02-29T12:43:33.504Z,97105.25
2024-02-29T12:46:00.892Z,97109.16
2024-02-29T12:48:28.201Z,97105.25
2024-02-29T12:50:55.539Z,97091.09
2024-02-29T12:53:23.560Z,97103.66
2024-02-29T12:55:50.713Z,97094.75
2024-02-29T12:58:20.151Z,97085.91
2024-02-29T13:00:47.732Z,97085.88
2024-02-29T13:03:15.134Z,97079.63
2024-02-29T13:05:42.447Z,97072.88
2024-02-29T13:08:09.977Z,97073.88
2024-02-29T13:10:37.462Z,97066.94
2024-02-29T13:13:10.287Z,97062.38
2024-02-29T13:15:39.888Z,97055.56
2024-02-29T13:18:07.709Z,97052.06
2024-02-29T13:20:35.445Z,97052.06
2024-02-29T13:23:03.170Z,97044.28
2024-02-29T13:25:30.872Z,97038.41
2024-02-29T13:27:58.667Z,97043.63
2024-02-29T13:30:26.276Z,97024.75
2024-02-29T13:32:55.384Z,97031.75
2024-02-29T13:35:22.735Z,97031.84
2024-02-29T13:37:50.007Z,97031.13
2024-02-29T13:40:17.535Z,97020.75
2024-02-29T13:42:45.767Z,97023.19
2024-02-29T13:45:13.287Z,97025.09
2024-02-29T13:47:48.525Z,97011.78
2024-02-29T13:50:17.624Z,97023.56
2024-02-29T13:52:44.989Z,97011.88
2024-02-29T13:55:12.726Z,97016.84
2024-02-29T13:57:40.895Z,97011.03
2024-02-29T14:00:08.960Z,97010.03
2024-02-29T14:02:36.491Z,97018.50
2024-02-29T14:05:04.694Z,97008.91
2024-02-29T14:07:34.204Z,97007.75
2024-02-29T14:10:01.783Z,97010.75
2024-02-29T14:12:29.512Z,97003.16
2024-02-29T14:14:57.215Z,97001.03
2024-02-29T14:17:24.399Z,96984.56
2024-02-29T14:19:51.806Z,96992.56
2024-02-29T14:22:19.253Z,96990.09
2024-02-29T14:24:50.515Z,96993.09
2024-02-29T14:27:18.689Z,96992.19
2024-02-29T14:29:46.161Z,96982.69
2024-02-29T14:32:14.074Z,96983.50
2024-02-29T14:34:41.415Z,96983.41
2024-02-29T14:37:09.069Z,96977.34
2024-02-29T14:39:37.182Z,96972.13
2024-02-29T14:42:07.537Z,96958.91
2024-02-29T14:44:35.199Z,96967.00
2024-02-29T14:47:03.285Z,96971.63
2024-02-29T14:49:30.668Z,96976.34
2024-02-29T14:51:58.456Z,96972.53
2024-02-29T14:54:26.655Z,96966.72
2024-02-29T14:56:54.659Z,96955.75
2024-02-29T14:59:23.725Z,96950.06
2024-02-29T15:01:52.699Z,96939.47
2024-02-29T15:04:20.782Z,96945.66
2024-02-29T15:06:48.506Z,96943.75
2024-02-29T15:09:15.851Z,96941.81
2024-02-29T15:11:43.309Z,96935.41
2024-02-29T15:14:10.521Z,96931.13
2024-02-29T15:16:39.605Z,96927.34
2024-02-29T15:19:07.076Z,96934.97
2024-02-29T15:21:34.458Z,96923.22
2024-02-29T15:24:02.420Z,96920.72
2024-02-29T15:26:29.750Z,96935.56
2024-02-29T15:28:56.944Z,96929.63
2024-02-29T15:31:24.282Z,96923.69
2024-02-29T15:33:56.664Z,96914.63
2024-02-29T15:36:24.053Z,96918.56
2024-02-29T15:38:53.787Z,96920.13
2024-02-29T15:41:21.576Z,96919.66
2024-02-29T15:43:49.280Z,96914.31
2024-02-29T15:46:17.527Z,96920.97
2024-02-29T15:48:45.928Z,96912.63
2024-02-29T15:51:15.334Z,96918.81
2024-02-29T15:53:42.687Z,96911.34
2024-02-29T15:56:11.770Z,96919.28
2024-02-29T15:58:39.691Z,96908.81
2024-02-29T16:01:07.157Z,96901.34
2024-02-29T16:03:35.887Z,96906.31
2024-02-29T16:06:03.162Z,96908.34
2024-02-29T16:08:32.371Z,96906.03
2024-02-29T16:11:00.254Z,96901.03
2024-02-29T16:13:29.005Z,96903.66
2024-02-29T16:16:00.563Z,96897.50
2024-02-29T16:18:28.652Z,96903.66
2024-02-29T16:20:56.182Z,96900.69
2024-02-29T16:23:23.696Z,96901.25
2024-02-29T16:25:53.560Z,96902.06
2024-02-29T16:28:21.887Z,96906.50
2024-02-29T16:30:50.004Z,96908.97
2024-02-29T16:33:17.777Z,96901.38
2024-02-29T16:35:45.347Z,96909.19
2024-02-29T16:38:12.904Z,96898.75
2024-02-29T16:40:46.519Z,96899.69
2024-02-29T16:43:16.070Z,96909.06
2024-02-29T16:45:43.275Z,96905.97
2024-02-29T16:48:11.449Z,96898.72
2024-02-29T16:50:40.873Z,96902.78
2024-02-29T16:53:09.458Z,96900.38
2024-02-29T16:55:37.056Z,96909.63
2024-02-29T16:58:05.183Z,96905.56
2024-02-29T17:00:35.262Z,96906.38
2024-02-29T17:03:03.097Z,96902.63
2024-02-29T17:05:30.766Z,96909.00
2024-02-29T17:07:58.895Z,96904.22
2024-02-29T17:10:26.332Z,96905.88
2024-02-29T17:12:54.785Z,96902.25
2024-02-29T17:15:22.176Z,96895.19
2024-02-29T17:17:51.050Z,96896.94
2024-02-29T17:20:18.991Z,96900.50
2024-02-29T17:22:46.780Z,96902.47
2024-02-29T17:25:14.783Z,96896.44
2024-02-29T17:27:42.193Z,96896.44
2024-02-29T17:30:11.461Z,96889.66
2024-02-29T17:32:39.103Z,96892.47
2024-02-29T17:35:10.339Z,96882.47
2024-02-29T17:37:37.805Z,96889.38
2024-02-29T17:40:05.379Z,96888.34
2024-02-29T17:42:33.374Z,96893.03
2024-02-29T17:45:00.895Z,96903.44
2024-02-29T17:47:29.650Z,96897.41
2024-02-29T17:49:56.826Z,96902.53
2024-02-29T17:52:26.121Z,96902.53
2024-02-29T17:54:53.924Z,96894.59
2024-02-29T17:57:21.584Z,96896.38
2024-02-29T17:59:48.934Z,96902.53
2024-02-29T18:02:17.725Z,96898.03
2024-02-29T18:04:45.623Z,96895.53
2024-02-29T18:07:15.710Z,96898.44
2024-02-29T18:09:44.716Z,96900.34
2024-02-29T18:12:12.059Z,96898.66
2024-02-29T18:14:39.709Z,96904.72
2024-02-29T18:17:07.551Z,96896.38
2024-02-29T18:19:35.356Z,96896.28
2024-02-29T18:22:02.697Z,96896.16
2024-02-29T18:24:30.108Z,96893.44
2024-02-29T18:26:59.354Z,96897.63
2024-02-29T18:29:28.089Z,96897.84
2024-02-29T18:31:55.492Z,96896.38
2024-02-29T18:34:22.832Z,96903.81
2024-02-29T18:36:50.082Z,96903.31
2024-02-29T18:39:17.457Z,96905.47
2024-02-29T18:41:44.767Z,96901.84
2024-02-29T18:44:14.899Z,96894.63
2024-02-29T18:46:42.596Z,96894.31
2024-02-29T18:49:10.763Z,96897.72
2024-02-29T18:51:43.854Z,96889.31
2024-02-29T18:54:11.302Z,96896.38
2024-02-29T18:56:38.616Z,96889.84
2024-02-29T18:59:06.493Z,96889.84
2024-02-29T19:01:35.916Z,96892.66
2024-02-29T19:04:03.646Z,96884.03
2024-02-29T19:06:31.025Z,96886.00
2024-02-29T19:08:59.658Z,96893.69
2024-02-29T19:11:27.058Z,96890.38
2024-02-29T19:13:54.164Z,96892.88
2024-02-29T19:16:21.499Z,96882.56
2024-02-29T19:18:50.805Z,96890.38
2024-02-29T19:21:18.563Z,96884.94
2024-02-29T19:23:45.774Z,96871.22
2024-02-29T19:26:13.617Z,96868.38
2024-02-29T19:28:40.881Z,96882.44
2024-02-29T19:31:08.747Z,96880.44
2024-02-29T19:33:36.493Z,96887.06
2024-02-29T19:36:06.219Z,96883.59
2024-02-29T19:38:33.542Z,96879.44
2024-02-29T19:41:00.909Z,96867.34
2024-02-29T19:43:28.685Z,96871.75
2024-02-29T19:45:56.314Z,96878.09
2024-02-29T19:48:24.501Z,96869.66
2024-02-29T19:50:52.872Z,96872.06
2024-02-29T19:53:21.844Z,96868.94
2024-02-29T19:55:49.778Z,96856.94
2024-02-29T19:58:17.127Z,96858.13
2024-02-29T20:00:47.022Z,96861.88
2024-02-29T20:03:15.444Z,96848.66
2024-02-29T20:05:43.300Z,96843.31
2024-02-29T20:08:10.929Z,96842.50
2024-02-29T20:10:40.024Z,96838.28
2024-02-29T20:13:07.412Z,96839.22
2024-02-29T20:15:34.930Z,96834.09
2024-02-29T20:18:02.573Z,96837.38
2024-02-29T20:20:29.848Z,96825.91
2024-02-29T20:22:57.116Z,96833.47
2024-02-29T20:25:24.781Z,96829.78
2024-02-29T20:27:55.021Z,96828.75
2024-02-29T20:30:23.160Z,96823.06
2024-02-29T20:32:51.314Z,96814.13
2024-02-29T20:35:20.821Z,96818.94
2024-02-29T20:37:48.702Z,96814.22
2024-02-29T20:40:16.827Z,96818.06
2024-02-29T20:42:44.686Z,96808.78
2024-02-29T20:45:16.191Z,96808.25
2024-02-29T20:47:45.223Z,96812.81
2024-02-29T20:50:13.129Z,96802.91
2024-02-29T20:52:40.659Z,96806.78
2024-02-29T20:55:08.465Z,96789.91
2024-02-29T20:57:37.268Z,96785.19
2024-02-29T21:00:05.940Z,96777.69
2024-02-29T21:02:35.053Z,96782.06
2024-02-29T21:05:02.320Z,96772.13
2024-02-29T21:07:32.426Z,96776.78
2024-02-29T21:10:02.710Z,96778.78
2024-02-29T21:12:30.665Z,96779.03
2024-02-29T21:14:58.347Z,96766.44
2024-02-29T21:17:25.936Z,96768.22
2024-02-29T21:19:55.439Z,96767.47
2024-02-29T21:22:23.091Z,96771.91
2024-02-29T21:24:50.479Z,96774.50
2024-02-29T21:27:17.710Z,96771.16
2024-02-29T21:29:45.317Z,96779.78
2024-02-29T21:32:12.949Z,96786.38
2024-02-29T21:34:43.519Z,96774.41
2024-02-29T21:37:13.681Z,96779.59
2024-02-29T21:39:44.890Z,96779.50
2024-02-29T21:42:13.948Z,96782.09
2024-02-29T21:44:41.588Z,96782.94
2024-02-29T21:47:09.208Z,96775.06
2024-02-29T21:49:36.803Z,96768.31
2024-02-29T21:52:04.817Z,96763.38
2024-02-29T21:54:33.989Z,96764.69
2024-02-29T21:57:01.246Z,96767.56
2024-02-29T21:59:28.913Z,96769.41
2024-02-29T22:01:56.777Z,96755.97
2024-02-29T22:04:24.519Z,96751.25
2024-02-29T22:06:52.047Z,96751.50
2024-02-29T22:09:19.598Z,96741.59
2024-02-29T22:11:48.624Z,96746.31
2024-02-29T22:14:15.838Z,96745.81
2024-02-29T22:16:43.766Z,96740.06
2024-02-29T22:19:12.494Z,96747.28
2024-02-29T22:21:39.901Z,96744.78
2024-02-29T22:24:07.773Z,96754.38
2024-02-29T22:26:35.094Z,96763.09
2024-02-29T22:29:04.859Z,96743.09
2024-02-29T22:31:34.900Z,96746.50
2024-02-29T22:34:02.861Z,96744.34
2024-02-29T22:36:30.514Z,96745.53
2024-02-29T22:38:57.724Z,96743.44
2024-02-29T22:41:25.364Z,96736.22
2024-02-29T22:43:52.864Z,96730.50
2024-02-29T22:46:21.903Z,96733.44
2024-02-29T22:48:49.246Z,96718.75
2024-02-29T22:51:17.694Z,96709.47
2024-02-29T22:53:45.049Z,96716.69
2024-02-29T22:56:12.186Z,96716.41
2024-02-29T22:58:40.014Z,96714.84
2024-02-29T23:01:07.614Z,96707.97
2024-02-29T23:03:37.174Z,96702.25
2024-02-29T23:06:04.752Z,96704.91
2024-02-29T23:08:32.022Z,96682.78
2024-02-29T23:10:59.587Z,96696.81
2024-02-29T23:13:27.348Z,96683.69
2024-02-29T23:15:55.215Z,96683.28
2024-02-29T23:18:22.849Z,96680.88
2024-02-29T23:20:52.605Z,96687.06
2024-02-29T23:23:20.271Z,96681.16
2024-02-29T23:25:47.818Z,96680.25
2024-02-29T23:28:16.363Z,96680.16
2024-02-29T23:30:44.146Z,96679.22
2024-02-29T23:33:11.721Z,96671.44
2024-02-29T23:35:38.874Z,96669.78
2024-02-29T23:38:07.742Z,96664.59
2024-02-29T23:40:35.045Z,96663.84
2024-02-29T23:43:02.647Z,96657.84
2024-02-29T23:45:29.914Z,96663.03
2024-02-29T23:47:57.514Z,96659.69
2024-02-29T23:50:25.274Z,96652.91
2024-02-29T23:52:52.950Z,96638.47
2024-02-29T23:55:22.404Z,96646.34
2024-02-29T23:57:52.036Z,96637.66
